createdAt,value
2022-11-04T00:00:28.631Z,14.33
2022-11-04T00:02:34.459Z,12.87
2022-11-04T00:04:36.902Z,13.67
2022-11-04T00:06:39.614Z,11.87
2022-11-04T00:08:42.227Z,13.67
2022-11-04T00:11:05.495Z,14.77
2022-11-04T00:13:07.935Z,13.27
2022-11-04T00:15:28.896Z,12.80
2022-11-04T00:18:45.669Z,12.80
2022-11-04T00:21:06.402Z,12.43
2022-11-04T00:23:27.093Z,11.00
2022-11-04T00:25:48.058Z,9.93
2022-11-04T00:28:09.256Z,10.70
2022-11-04T00:30:11.911Z,10.87
2022-11-04T00:36:38.952Z,10.60
2022-11-04T00:38:41.154Z,11.17
2022-11-04T00:40:43.705Z,11.67
2022-11-04T00:42:46.902Z,12.57
2022-11-04T00:44:49.094Z,16.23
2022-11-04T00:46:51.437Z,13.10
2022-11-04T00:48:54.470Z,12.37
2022-11-04T00:50:57.720Z,11.40
2022-11-04T00:53:03.426Z,12.63
2022-11-04T00:55:06.214Z,12.93
2022-11-04T00:57:14.399Z,11.93
2022-11-04T00:59:16.890Z,11.33
2022-11-04T01:01:20.238Z,11.30
2022-11-04T01:03:22.418Z,11.37
2022-11-04T01:05:24.740Z,10.03
2022-11-04T01:07:29.625Z,9.97
2022-11-04T01:09:31.919Z,10.93
2022-11-04T01:11:34.847Z,10.93
2022-11-04T01:14:26.787Z,9.40
2022-11-04T01:16:32.620Z,9.37
2022-11-04T01:18:35.365Z,10.23
2022-11-04T01:20:37.649Z,9.53
2022-11-04T01:22:39.893Z,9.33
2022-11-04T01:24:42.266Z,8.43
2022-11-04T01:26:44.527Z,8.23
2022-11-04T01:28:47.137Z,8.63
2022-11-04T01:30:49.695Z,7.77
2022-11-04T01:32:52.022Z,7.07
2022-11-04T01:34:54.200Z,7.40
2022-11-04T01:36:56.352Z,8.40
2022-11-04T01:38:58.771Z,7.20
2022-11-04T01:41:01.993Z,8.27
2022-11-04T01:43:04.865Z,9.17
2022-11-04T01:45:15.254Z,8.70
2022-11-04T01:47:27.128Z,8.03
2022-11-04T01:49:40.733Z,9.00
2022-11-04T01:51:49.191Z,8.40
2022-11-04T01:53:55.384Z,7.43
2022-11-04T01:56:00.810Z,6.80
2022-11-04T01:58:07.609Z,6.80
2022-11-04T02:00:11.258Z,6.37
2022-11-04T02:02:16.639Z,6.37
2022-11-04T02:04:28.582Z,6.00
2022-11-04T02:06:30.900Z,6.50
2022-11-04T02:08:34.263Z,6.30
2022-11-04T02:10:39.108Z,6.30
2022-11-04T02:12:50.013Z,6.30
2022-11-04T02:14:53.936Z,6.80
2022-11-04T02:17:19.104Z,5.47
2022-11-04T02:19:52.107Z,6.00
2022-11-04T02:22:33.299Z,5.37
2022-11-04T02:24:54.124Z,6.37
2022-11-04T02:27:04.106Z,6.13
2022-11-04T02:29:32.002Z,5.83
2022-11-04T02:32:01.156Z,5.40
2022-11-04T02:34:42.079Z,5.20
2022-11-04T02:36:57.420Z,6.00
2022-11-04T02:39:14.765Z,5.87
2022-11-04T02:41:35.572Z,5.13
2022-11-04T02:43:45.931Z,5.43
2022-11-04T02:45:51.581Z,5.90
2022-11-04T02:48:16.914Z,5.73
2022-11-04T02:50:48.014Z,5.40
2022-11-04T02:53:02.074Z,5.50
2022-11-04T02:55:11.939Z,5.20
2022-11-04T02:57:20.018Z,5.53
2022-11-04T02:59:46.425Z,5.03
2022-11-04T03:01:51.664Z,5.47
2022-11-04T03:04:01.575Z,4.67
2022-11-04T03:06:05.118Z,5.20
2022-11-04T03:08:15.855Z,5.67
2022-11-04T03:10:31.215Z,5.30
2022-11-04T03:12:40.517Z,4.03
2022-11-04T03:14:48.637Z,5.03
2022-11-04T03:17:01.779Z,4.63
2022-11-04T03:19:06.801Z,4.67
2022-11-04T03:21:11.610Z,4.53
2022-11-04T03:27:05.339Z,4.40
2022-11-04T03:29:29.319Z,4.47
2022-11-04T03:32:02.491Z,3.63
2022-11-04T03:34:05.024Z,3.60
2022-11-04T03:36:09.089Z,3.70
2022-11-04T03:38:14.369Z,3.93
2022-11-04T03:40:19.629Z,3.90
2022-11-04T03:42:24.055Z,3.63
2022-11-04T03:44:27.364Z,4.43
2022-11-04T03:46:29.987Z,4.00
2022-11-04T03:48:32.642Z,4.20
2022-11-04T03:50:42.192Z,3.67
2022-11-04T03:52:44.676Z,4.10
2022-11-04T03:54:47.833Z,3.83
2022-11-04T03:57:18.723Z,4.70
2022-11-04T03:59:23.956Z,3.40
2022-11-04T04:01:50.496Z,3.20
2022-11-04T04:03:59.968Z,3.57
2022-11-04T04:06:20.005Z,4.40
2022-11-04T04:08:46.223Z,3.93
2022-11-04T04:11:03.378Z,3.80
2022-11-04T04:13:44.726Z,4.07
2022-11-04T04:15:54.345Z,4.20
2022-11-04T04:18:01.849Z,3.13
2022-11-04T04:20:18.802Z,4.20
2022-11-04T04:22:25.394Z,3.43
2022-11-04T04:24:54.018Z,3.03
2022-11-04T04:27:15.780Z,3.27
2022-11-04T04:29:21.557Z,3.53
2022-11-04T04:31:44.378Z,4.27
2022-11-04T04:33:46.979Z,3.80
2022-11-04T04:35:57.196Z,4.37
2022-11-04T04:38:24.686Z,4.10
2022-11-04T04:40:49.645Z,4.57
2022-11-04T04:43:11.973Z,4.07
2022-11-04T04:45:29.124Z,5.40
2022-11-04T04:47:45.525Z,5.03
2022-11-04T04:49:56.102Z,4.03
2022-11-04T04:51:58.194Z,4.00
2022-11-04T04:54:00.503Z,4.97
2022-11-04T04:56:02.700Z,4.10
2022-11-04T04:58:05.194Z,4.30
2022-11-04T05:00:10.563Z,4.67
2022-11-04T05:02:12.878Z,5.97
2022-11-04T05:04:15.304Z,8.63
2022-11-04T05:06:17.861Z,11.90
2022-11-04T05:08:19.927Z,9.57
2022-11-04T05:10:22.347Z,8.80
2022-11-04T05:12:26.023Z,6.67
2022-11-04T05:14:29.140Z,7.30
2022-11-04T05:16:31.269Z,7.03
2022-11-04T05:22:28.713Z,7.07
2022-11-04T05:24:30.989Z,5.93
2022-11-04T05:26:33.139Z,5.20
2022-11-04T05:28:35.713Z,4.80
2022-11-04T05:30:37.885Z,6.23
2022-11-04T05:32:40.026Z,5.07
2022-11-04T05:34:42.501Z,5.03
2022-11-04T05:36:45.068Z,6.03
2022-11-04T05:38:51.816Z,6.60
2022-11-04T05:40:53.982Z,13.53
2022-11-04T05:42:58.409Z,10.27
2022-11-04T05:45:00.305Z,7.07
2022-11-04T05:47:02.283Z,5.40
2022-11-04T05:49:05.287Z,4.27
2022-11-04T05:51:12.978Z,4.27
2022-11-04T05:53:15.225Z,4.80
2022-11-04T05:55:17.307Z,5.37
2022-11-04T05:57:19.175Z,5.77
2022-11-04T05:59:21.082Z,11.00
2022-11-04T06:01:27.269Z,12.57
2022-11-04T06:03:29.990Z,11.37
2022-11-04T06:05:32.258Z,9.30
2022-11-04T06:07:34.220Z,8.83
2022-11-04T06:09:41.854Z,7.77
2022-11-04T06:11:43.881Z,9.20
2022-11-04T06:13:46.074Z,9.47
2022-11-04T06:15:48.017Z,9.15
2022-11-04T06:17:49.976Z,7.63
2022-11-04T06:19:51.932Z,11.23
2022-11-04T06:21:53.912Z,12.17
2022-11-04T06:23:57.701Z,11.07
2022-11-04T06:25:59.574Z,11.00
2022-11-04T06:28:04.451Z,11.90
2022-11-04T06:30:07.141Z,11.45
2022-11-04T06:32:10.898Z,10.03
2022-11-04T06:34:12.786Z,8.23
2022-11-04T06:36:16.336Z,8.45
2022-11-04T06:42:27.835Z,12.30
2022-11-04T06:44:30.013Z,15.20
2022-11-04T06:46:42.671Z,15.63
2022-11-04T06:48:45.148Z,14.87
2022-11-04T06:50:47.373Z,12.60
2022-11-04T06:52:49.422Z,10.15
2022-11-04T06:54:51.566Z,9.40
2022-11-04T06:56:53.437Z,9.35
2022-11-04T06:58:56.182Z,8.18
2022-11-04T07:00:58.381Z,8.38
2022-11-04T07:03:00.846Z,10.35
2022-11-04T07:05:03.166Z,9.20
2022-11-04T07:07:05.648Z,10.32
2022-11-04T07:09:07.626Z,9.38
2022-11-04T07:11:09.940Z,12.32
2022-11-04T07:13:11.961Z,13.45
2022-11-04T07:15:14.406Z,14.85
2022-11-04T07:17:19.308Z,12.65
2022-11-04T07:19:21.248Z,12.15
2022-11-04T07:21:25.226Z,10.88
2022-11-04T07:23:27.329Z,9.75
2022-11-04T07:25:32.995Z,7.43
2022-11-04T07:27:35.005Z,7.57
2022-11-04T07:29:37.339Z,8.88
2022-11-04T07:31:43.678Z,10.75
2022-11-04T07:33:50.138Z,8.38
2022-11-04T07:35:57.956Z,8.80
2022-11-04T07:38:00.200Z,7.57
2022-11-04T07:40:02.178Z,6.22
2022-11-04T07:42:04.231Z,6.70
2022-11-04T07:44:06.372Z,7.47
2022-11-04T07:46:12.089Z,6.75
2022-11-04T07:48:14.399Z,7.88
2022-11-04T07:50:19.133Z,9.10
2022-11-04T07:52:21.320Z,8.27
2022-11-04T07:54:23.087Z,8.50
2022-11-04T07:56:25.817Z,8.90
2022-11-04T07:58:29.485Z,10.32
2022-11-04T08:00:31.631Z,11.15
2022-11-04T08:02:35.358Z,11.20
2022-11-04T08:04:38.075Z,11.63
2022-11-04T08:06:42.343Z,12.82
2022-11-04T08:08:45.006Z,16.08
2022-11-04T08:10:53.169Z,21.58
2022-11-04T08:12:58.270Z,16.80
2022-11-04T08:15:00.907Z,13.20
2022-11-04T08:17:03.007Z,11.60
2022-11-04T08:19:05.136Z,11.45
2022-11-04T08:21:07.907Z,13.63
2022-11-04T08:23:12.428Z,13.00
2022-11-04T08:25:14.696Z,10.43
2022-11-04T08:27:17.008Z,8.27
2022-11-04T08:29:19.298Z,8.88
2022-11-04T08:31:26.989Z,9.30
2022-11-04T08:33:31.161Z,7.50
2022-11-04T08:36:02.634Z,8.07
2022-11-04T08:38:04.878Z,7.85
2022-11-04T08:40:07.840Z,8.70
2022-11-04T08:42:10.040Z,8.40
2022-11-04T08:48:06.133Z,7.68
2022-11-04T08:50:08.336Z,7.35
2022-11-04T08:52:10.271Z,7.82
2022-11-04T08:54:12.149Z,7.32
2022-11-04T08:56:29.059Z,7.28
2022-11-04T08:58:30.902Z,7.70
2022-11-04T09:00:33.195Z,7.00
2022-11-04T09:02:35.120Z,7.05
2022-11-04T09:04:37.256Z,7.28
2022-11-04T09:06:42.731Z,7.07
2022-11-04T09:08:44.877Z,6.63
2022-11-04T09:10:48.190Z,7.10
2022-11-04T09:12:50.250Z,6.68
2022-11-04T09:14:52.200Z,6.60
2022-11-04T09:16:56.718Z,6.65
2022-11-04T09:18:59.618Z,7.28
2022-11-04T09:21:06.847Z,7.60
2022-11-04T09:23:09.906Z,6.57
2022-11-04T09:25:12.135Z,6.72
2022-11-04T09:27:14.971Z,6.95
2022-11-04T09:29:17.312Z,6.07
2022-11-04T09:31:20.012Z,6.50
2022-11-04T09:33:21.950Z,6.78
2022-11-04T09:35:24.116Z,6.93
2022-11-04T09:37:25.988Z,7.40
2022-11-04T09:39:30.541Z,7.53
2022-11-04T09:41:57.468Z,8.25
2022-11-04T09:44:11.747Z,7.40
2022-11-04T09:46:14.907Z,7.05
2022-11-04T09:48:30.212Z,8.30
2022-11-04T09:50:49.544Z,7.78
2022-11-04T09:52:59.073Z,7.50
2022-11-04T09:55:15.818Z,7.57
2022-11-04T09:57:19.448Z,7.30
2022-11-04T09:59:28.979Z,8.35
2022-11-04T10:01:52.536Z,8.15
2022-11-04T10:04:25.270Z,7.25
2022-11-04T10:06:55.269Z,6.90
2022-11-04T10:09:30.260Z,7.05
2022-11-04T10:11:32.315Z,7.40
2022-11-04T10:14:15.825Z,6.70
2022-11-04T10:16:42.693Z,6.55
2022-11-04T10:19:16.554Z,7.13
2022-11-04T10:21:21.533Z,7.57
2022-11-04T10:23:29.128Z,7.25
2022-11-04T10:25:43.204Z,7.35
2022-11-04T10:27:47.379Z,7.07
2022-11-04T10:29:55.303Z,6.53
2022-11-04T10:32:00.804Z,7.85
2022-11-04T10:34:23.920Z,6.60
2022-11-04T10:36:27.410Z,6.90
2022-11-04T10:38:41.837Z,7.35
2022-11-04T10:40:48.460Z,6.30
2022-11-04T10:42:51.951Z,5.88
2022-11-04T10:44:54.025Z,6.88
2022-11-04T10:47:03.451Z,6.90
2022-11-04T10:49:29.815Z,6.20
2022-11-04T10:54:54.154Z,7.25
2022-11-04T10:56:57.261Z,7.75
2022-11-04T10:59:20.006Z,8.85
2022-11-04T11:01:26.202Z,7.07
2022-11-04T11:03:33.745Z,7.22
2022-11-04T11:05:35.871Z,7.18
2022-11-04T11:07:38.381Z,7.13
2022-11-04T11:09:54.012Z,6.70
2022-11-04T11:12:36.328Z,7.50
2022-11-04T11:14:28.869Z,6.90
2022-11-04T11:16:32.067Z,7.97
2022-11-04T11:18:34.258Z,7.00
2022-11-04T11:21:39.299Z,6.95
2022-11-04T11:23:54.752Z,7.07
2022-11-04T11:25:56.753Z,7.00
2022-11-04T11:28:01.693Z,8.52
2022-11-04T11:30:04.211Z,8.27
2022-11-04T11:32:22.920Z,9.18
2022-11-04T11:34:34.898Z,8.32
2022-11-04T11:36:38.932Z,8.75
2022-11-04T11:39:28.187Z,8.82
2022-11-04T11:41:31.872Z,8.38
2022-11-04T11:43:36.902Z,10.23
2022-11-04T11:45:40.181Z,9.25
2022-11-04T11:47:42.551Z,9.18
2022-11-04T11:49:44.890Z,9.88
2022-11-04T11:51:47.021Z,23.17
2022-11-04T11:54:13.462Z,30.15
2022-11-04T11:56:45.841Z,18.70
2022-11-04T12:02:07.456Z,18.30
2022-11-04T12:09:16.928Z,8.48
2022-11-04T12:11:49.097Z,13.25
2022-11-04T12:13:57.204Z,11.95
2022-11-04T12:16:31.554Z,10.05
2022-11-04T12:19:01.223Z,9.30
2022-11-04T12:21:21.588Z,9.30
2022-11-04T12:23:55.834Z,9.32
2022-11-04T12:26:02.114Z,9.05
2022-11-04T12:28:10.086Z,9.77
2022-11-04T12:30:24.029Z,9.27
2022-11-04T12:32:30.375Z,8.27
2022-11-04T12:34:54.327Z,8.88
2022-11-04T12:37:04.570Z,8.27
2022-11-04T12:39:28.774Z,8.85
2022-11-04T12:42:06.734Z,8.27
2022-11-04T12:44:07.763Z,8.23
2022-11-04T12:46:16.124Z,10.15
2022-11-04T12:48:55.906Z,8.90
2022-11-04T12:51:08.581Z,8.90
2022-11-04T12:53:16.329Z,8.23
2022-11-04T12:55:30.517Z,8.95
2022-11-04T12:57:46.566Z,9.18
2022-11-04T13:00:10.526Z,9.98
2022-11-04T13:02:38.270Z,10.52
2022-11-04T13:04:47.713Z,10.80
2022-11-04T13:07:28.498Z,9.13
2022-11-04T13:09:38.120Z,9.60
2022-11-04T13:11:45.915Z,11.75
2022-11-04T13:13:57.489Z,10.93
2022-11-04T13:16:09.888Z,11.80
2022-11-04T13:18:17.735Z,10.88
2022-11-04T13:20:36.548Z,12.50
2022-11-04T13:22:39.642Z,13.10
2022-11-04T13:25:00.527Z,12.55
2022-11-04T13:27:15.971Z,11.50
2022-11-04T13:29:21.615Z,11.07
2022-11-04T13:31:33.205Z,10.63
2022-11-04T13:33:54.200Z,11.88
2022-11-04T13:35:56.107Z,10.82
2022-11-04T13:38:16.388Z,11.13
2022-11-04T13:40:27.567Z,11.80
2022-11-04T13:43:21.645Z,12.10
2022-11-04T13:45:23.873Z,13.45
2022-11-04T13:47:34.135Z,11.50
2022-11-04T13:49:37.629Z,12.45
2022-11-04T13:51:43.383Z,23.27
2022-11-04T13:53:51.765Z,29.75
2022-11-04T13:56:09.478Z,28.65
2022-11-04T13:58:28.109Z,28.60
2022-11-04T14:00:32.387Z,24.67
2022-11-04T14:02:41.350Z,22.92
2022-11-04T14:04:44.613Z,23.33
2022-11-04T14:07:02.105Z,22.45
2022-11-04T14:09:29.312Z,20.15
2022-11-04T14:11:34.833Z,16.95
2022-11-04T14:13:46.166Z,12.27
2022-11-04T14:16:09.963Z,10.68
2022-11-04T14:18:30.548Z,9.05
2022-11-04T14:24:16.605Z,12.23
2022-11-04T14:26:23.059Z,12.23
2022-11-04T14:28:30.268Z,16.85
2022-11-04T14:30:50.809Z,16.20
2022-11-04T14:32:58.839Z,15.55
2022-11-04T14:35:04.595Z,13.05
2022-11-04T14:37:15.466Z,17.20
2022-11-04T14:39:24.566Z,19.17
2022-11-04T14:41:29.594Z,17.25
2022-11-04T14:43:35.342Z,14.38
2022-11-04T14:45:40.221Z,13.93
2022-11-04T14:47:43.563Z,13.57
2022-11-04T14:49:52.875Z,13.32
2022-11-04T14:51:55.463Z,14.15
2022-11-04T14:54:08.729Z,14.77
2022-11-04T14:56:23.917Z,14.90
2022-11-04T14:58:28.392Z,13.93
2022-11-04T15:00:34.290Z,14.48
2022-11-04T15:02:36.780Z,13.38
2022-11-04T15:04:45.509Z,12.95
2022-11-04T15:07:04.251Z,13.73
2022-11-04T15:09:20.620Z,13.02
2022-11-04T15:11:58.328Z,12.85
2022-11-04T15:14:00.938Z,12.77
2022-11-04T15:16:11.168Z,11.75
2022-11-04T15:18:24.143Z,13.50
2022-11-04T15:20:31.710Z,12.95
2022-11-04T15:22:34.281Z,12.63
2022-11-04T15:24:37.749Z,12.20
2022-11-04T15:26:40.905Z,12.82
2022-11-04T15:28:48.668Z,15.70
2022-11-04T15:31:21.058Z,16.48
2022-11-04T15:33:25.437Z,14.98
2022-11-04T15:35:31.513Z,17.05
2022-11-04T15:37:46.648Z,21.35
2022-11-04T15:39:53.161Z,22.13
2022-11-04T15:42:17.965Z,22.92
2022-11-04T15:44:24.375Z,23.30
2022-11-04T15:46:29.598Z,24.33
2022-11-04T15:48:34.993Z,26.00
2022-11-04T15:50:38.996Z,31.85
2022-11-04T15:52:50.900Z,37.58
2022-11-04T15:54:59.850Z,37.97
2022-11-04T15:57:12.991Z,41.08
2022-11-04T15:59:19.972Z,48.72
2022-11-04T16:01:23.039Z,51.30
2022-11-04T16:03:26.217Z,60.83
2022-11-04T16:05:40.121Z,53.70
2022-11-04T16:07:44.274Z,40.92
2022-11-04T16:09:49.735Z,30.45
2022-11-04T16:12:27.063Z,30.23
2022-11-04T16:14:30.270Z,26.90
2022-11-04T16:16:32.832Z,47.45
2022-11-04T16:18:44.902Z,41.78
2022-11-04T16:20:48.848Z,29.98
2022-11-04T16:23:00.641Z,25.35
2022-11-04T16:25:05.825Z,24.15
2022-11-04T16:27:14.206Z,23.45
2022-11-04T16:29:32.581Z,30.15
2022-11-04T16:31:36.634Z,39.67
2022-11-04T16:33:38.853Z,41.85
2022-11-04T16:35:43.518Z,39.97
2022-11-04T16:37:46.368Z,38.70
2022-11-04T16:39:50.183Z,31.83
2022-11-04T16:41:52.268Z,60.00
2022-11-04T16:43:55.799Z,48.85
2022-11-04T16:45:57.915Z,38.28
2022-11-04T16:48:03.351Z,24.77
2022-11-04T16:50:14.418Z,20.15
2022-11-04T16:52:23.248Z,23.27
2022-11-04T16:54:25.672Z,51.85
2022-11-04T16:56:27.772Z,47.78
2022-11-04T16:58:30.190Z,36.47
2022-11-04T17:00:36.142Z,35.35
2022-11-04T17:02:39.979Z,42.97
2022-11-04T17:04:42.097Z,36.75
2022-11-04T17:06:44.457Z,38.20
2022-11-04T17:08:47.264Z,40.72
2022-11-04T17:10:49.533Z,38.78
2022-11-04T17:12:51.999Z,33.30
2022-11-04T17:14:54.561Z,29.45
2022-11-04T17:16:59.358Z,27.05
2022-11-04T17:19:01.573Z,41.17
2022-11-04T17:21:08.313Z,46.10
2022-11-04T17:23:13.191Z,47.45
2022-11-04T17:25:23.526Z,63.72
2022-11-04T17:27:27.483Z,46.35
2022-11-04T17:29:30.465Z,56.15
2022-11-04T17:31:33.042Z,76.65
2022-11-04T17:33:35.120Z,64.78
2022-11-04T17:35:42.002Z,49.08
2022-11-04T17:37:44.470Z,37.08
2022-11-04T17:39:49.562Z,30.90
2022-11-04T17:42:10.186Z,25.27
2022-11-04T17:44:12.547Z,23.05
2022-11-04T17:46:34.478Z,20.58
2022-11-04T17:48:36.818Z,62.58
2022-11-04T17:50:39.872Z,66.28
2022-11-04T17:52:42.509Z,76.43
2022-11-04T17:54:44.747Z,102.03
2022-11-04T17:56:47.525Z,72.38
2022-11-04T17:58:50.626Z,55.15
2022-11-04T18:00:54.538Z,48.63
2022-11-04T18:02:57.682Z,62.72
2022-11-04T18:05:01.867Z,66.55
2022-11-04T18:07:04.372Z,67.70
2022-11-04T18:09:07.041Z,67.25
2022-11-04T18:11:11.877Z,47.10
2022-11-04T18:13:13.960Z,40.38
2022-11-04T18:15:19.298Z,38.10
2022-11-04T18:17:24.806Z,31.38
2022-11-04T18:20:29.648Z,31.25
2022-11-04T18:22:31.919Z,32.95
2022-11-04T18:24:34.668Z,34.05
2022-11-04T18:26:36.991Z,35.95
2022-11-04T18:28:39.356Z,39.85
2022-11-04T18:30:41.665Z,37.38
2022-11-04T18:32:43.854Z,42.13
2022-11-04T18:34:46.061Z,58.55
2022-11-04T18:36:49.159Z,61.88
2022-11-04T18:38:51.775Z,60.75
2022-11-04T18:40:54.148Z,55.13
2022-11-04T18:42:56.512Z,42.75
2022-11-04T18:44:58.651Z,46.53
2022-11-04T18:47:01.209Z,46.83
2022-11-04T18:49:03.479Z,41.45
2022-11-04T18:51:09.699Z,52.90
2022-11-04T18:53:14.402Z,40.22
2022-11-04T18:55:16.432Z,46.28
2022-11-04T18:57:18.512Z,47.97
2022-11-04T18:59:21.011Z,47.17
2022-11-04T19:01:24.442Z,62.17
2022-11-04T19:03:26.609Z,64.38
2022-11-04T19:05:28.564Z,51.22
2022-11-04T19:07:31.028Z,55.97
2022-11-04T19:09:46.572Z,52.70
2022-11-04T19:12:09.637Z,52.90
2022-11-04T19:14:16.112Z,56.45
2022-11-04T19:16:18.322Z,92.30
2022-11-04T19:18:20.567Z,81.25
2022-11-04T19:20:23.775Z,68.82
2022-11-04T19:22:25.914Z,47.90
2022-11-04T19:24:28.693Z,39.20
2022-11-04T19:26:33.715Z,45.17
2022-11-04T19:28:48.141Z,51.35
2022-11-04T19:31:03.313Z,43.53
2022-11-04T19:33:05.515Z,37.53
2022-11-04T19:35:07.826Z,32.38
2022-11-04T19:37:10.956Z,33.55
2022-11-04T19:39:13.266Z,37.13
2022-11-04T19:41:35.598Z,36.85
2022-11-04T19:43:37.503Z,33.78
2022-11-04T19:45:42.447Z,46.83
2022-11-04T19:47:47.055Z,33.28
2022-11-04T19:49:49.168Z,32.35
2022-11-04T19:51:51.822Z,33.67
2022-11-04T19:53:54.814Z,30.50
2022-11-04T19:55:58.793Z,24.10
2022-11-04T19:58:02.059Z,24.00
2022-11-04T20:00:04.872Z,24.25
2022-11-04T20:02:15.401Z,26.98
2022-11-04T20:04:18.555Z,32.65
2022-11-04T20:06:21.548Z,31.27
2022-11-04T20:08:23.775Z,32.47
2022-11-04T20:10:25.752Z,29.17
2022-11-04T20:12:46.258Z,36.30
2022-11-04T20:14:48.474Z,39.88
2022-11-04T20:16:50.484Z,44.45
2022-11-04T20:18:57.082Z,50.97
2022-11-04T20:20:59.062Z,41.35
2022-11-04T20:23:01.696Z,54.75
2022-11-04T20:25:04.810Z,75.53
2022-11-04T20:27:06.950Z,73.40
2022-11-04T20:29:10.280Z,98.97
2022-11-04T20:31:18.160Z,70.95
2022-11-04T20:33:20.187Z,105.03
2022-11-04T20:35:23.077Z,168.30
2022-11-04T20:37:26.217Z,100.68
2022-11-04T20:39:28.130Z,100.50
2022-11-04T20:41:30.444Z,79.95
2022-11-04T20:43:34.655Z,71.57
2022-11-04T20:45:39.386Z,50.35
2022-11-04T20:47:42.418Z,35.70
2022-11-04T20:49:45.203Z,43.97
2022-11-04T20:51:54.634Z,37.40
2022-11-04T20:54:00.790Z,40.17
2022-11-04T20:56:07.707Z,57.60
2022-11-04T20:58:10.055Z,57.53
2022-11-04T21:00:13.191Z,59.53
2022-11-04T21:02:15.257Z,64.70
2022-11-04T21:04:21.653Z,86.30
2022-11-04T21:06:23.703Z,85.45
2022-11-04T21:08:26.578Z,49.70
2022-11-04T21:10:28.550Z,57.30
2022-11-04T21:12:30.658Z,81.45
2022-11-04T21:14:35.330Z,74.25
2022-11-04T21:16:37.509Z,98.55
2022-11-04T21:18:40.278Z,88.43
2022-11-04T21:20:43.427Z,62.97
2022-11-04T21:22:45.629Z,44.95
2022-11-04T21:24:47.684Z,87.35
2022-11-04T21:26:53.289Z,68.05
2022-11-04T21:29:01.702Z,58.33
2022-11-04T21:31:06.958Z,44.25
2022-11-04T21:33:09.338Z,30.25
2022-11-04T21:35:11.315Z,95.55
2022-11-04T21:37:13.700Z,89.50
2022-11-04T21:39:17.856Z,153.10
2022-11-04T21:41:26.051Z,128.43
2022-11-04T21:43:28.344Z,79.15
2022-11-04T21:45:32.829Z,80.85
2022-11-04T21:47:34.858Z,73.25
2022-11-04T21:49:36.729Z,135.60
2022-11-04T21:51:38.705Z,149.25
2022-11-04T21:53:41.183Z,153.35
2022-11-04T21:55:43.870Z,121.55
2022-11-04T21:57:46.052Z,150.80
2022-11-04T21:59:48.075Z,134.15
2022-11-04T22:01:50.248Z,153.55
2022-11-04T22:03:54.754Z,178.88
2022-11-04T22:06:02.181Z,177.45
2022-11-04T22:08:19.978Z,134.07
2022-11-04T22:10:22.935Z,110.13
2022-11-04T22:12:24.951Z,100.38
2022-11-04T22:14:30.720Z,94.28
2022-11-04T22:16:37.427Z,148.15
2022-11-04T22:18:40.190Z,105.57
2022-11-04T22:20:42.762Z,82.82
2022-11-04T22:22:44.900Z,76.22
2022-11-04T22:25:03.195Z,74.00
2022-11-04T22:27:06.850Z,66.53
2022-11-04T22:29:09.918Z,78.28
2022-11-04T22:31:16.812Z,80.40
2022-11-04T22:33:21.104Z,88.30
2022-11-04T22:35:25.582Z,107.78
2022-11-04T22:37:27.634Z,99.45
2022-11-04T22:39:32.655Z,50.13
2022-11-04T22:41:35.727Z,43.95
2022-11-04T22:43:38.032Z,48.03
2022-11-04T22:45:40.107Z,42.53
2022-11-04T22:47:42.298Z,42.42
2022-11-04T22:49:44.417Z,53.15
2022-11-04T22:51:46.850Z,47.33
2022-11-04T22:53:57.695Z,32.85
2022-11-04T22:56:01.953Z,24.73
2022-11-04T22:58:04.170Z,20.17
2022-11-04T23:00:07.650Z,24.58
2022-11-04T23:02:09.903Z,23.73
2022-11-04T23:04:14.255Z,35.35
2022-11-04T23:06:16.461Z,35.50
2022-11-04T23:08:18.512Z,28.75
2022-11-04T23:10:39.189Z,33.58
2022-11-04T23:13:04.204Z,21.77
2022-11-04T23:15:25.427Z,14.73
2022-11-04T23:17:46.019Z,15.25
2022-11-04T23:19:50.720Z,25.38
2022-11-04T23:22:11.457Z,35.40
2022-11-04T23:24:32.310Z,37.38
2022-11-04T23:26:34.487Z,22.65
2022-11-04T23:28:58.220Z,21.55
2022-11-04T23:31:00.393Z,17.85
2022-11-04T23:33:05.229Z,13.63
2022-11-04T23:35:27.838Z,16.52
2022-11-04T23:37:30.272Z,14.77
2022-11-04T23:39:32.384Z,17.70
2022-11-04T23:41:53.359Z,19.45
2022-11-04T23:43:55.467Z,17.58
2022-11-04T23:46:16.225Z,14.63
2022-11-04T23:48:37.190Z,15.15
2022-11-04T23:50:57.989Z,15.57
2022-11-04T23:53:20.311Z,14.55
2022-11-04T23:55:43.866Z,12.40
2022-11-04T23:58:04.655Z,16.30
